Airfield :
LOGIN :

Register | Disclaimer

   EN    FR    IT 

 










Legend :    VFR   Marginal VFR   IFR   Intensive IFR   Very Intensive IFR
Visi :
Ceiling :
>= 8 km
>= 3000ft
5 to 8 km
1000 to 3000 ft
1500m to 5 km
500 to 1000 ft
800 to 1500m
200 to 500 ft
< 800m
< 200 ft
Symbols :   Thunderstorms  Fog  Heavy snow  Heavy precipitations  Wind > 20 kt
SIGMETs :     Misc.  Thunderstorms  Icing  Turbulence  Mountain Waves  Volcanic Ashes






- Airport Elevation : 45 ft
- IATA code : CEG


EGNR - Hawarden Chester

CURRENT METAR :
  • 041620Z VRB03KT 9999 FEW018 SCT025CB 21/14 Q1011

EXPIRED METARs :
  • 041550Z 35004KT 310V030 9999 FEW018 SCT025CB 20/13 Q1011
  • 041520Z 34006KT 9999 FEW018 SCT025CB 20/14 Q1011
  • 041450Z 32009KT 9999 FEW018 SCT025 19/14 Q1012
  • 041420Z 32013KT 9999 FEW018 SCT025 19/14 Q1012
  • 041350Z 30009KT 280V340 9999 FEW018 SCT025 22/13 Q1012

TAF TAF EGNR
Valid from the 04 at 15:00 until the 04 at 20:00 UTC


041358Z 0415/0420 33005KT 9999 FEW030
PROB40
TEMPO 0415/0418 7000 SHRA



MET'MAP, your aeronautical weather chart ! - Copyright ORBIFLY December 2007 - Disclaimer

ORBIFLY MET'MAP TEAM :

Programming & Development : Alexandra Zaïnal
Concept & original design : Baudouin d'Aumeries
Assistance for programming : Marc-Olivier Méhu
Technical & hardware support : Manuel Goepfert

Contact : metmap@orbifly.com




SOURCES & CREDITS :

   NOAA